Time;durP1;ratioP1;P1;durP2;ratioP2;P2;SDS_P1;SDS_P2;PMS_P1;PMS_P2;Temp;Humidity;BMP_temperature;BMP_pressure;BME280_temperature;BME280_humidity;BME280_pressure;Samples;Min_cycle;Max_cycle;Signal;HPM_P1;HPM_P2
2022/03/21 00:02:24;;;;;;;;;;;15.50;58.90;;;;;;5126355;29;19944;-30
2022/03/21 00:04:55;;;;;;;;;;;15.50;59.30;;;;;;5127098;29;19952;-28
2022/03/21 00:07:26;;;;;;;;;;;15.50;58.70;;;;;;5126241;29;19972;-29
2022/03/21 00:09:57;;;;;;;;;;;15.50;58.50;;;;;;5192265;28;19922;-30
2022/03/21 00:12:28;;;;;;;;;;;15.50;58.40;;;;;;5126333;29;19934;-28
2022/03/21 00:14:59;;;;;;;;;;;15.50;58.30;;;;;;5125874;29;19992;-28
2022/03/21 00:17:31;;;;;;;;;;;15.50;58.40;;;;;;5192736;28;19966;-29
2022/03/21 00:20:02;;;;;;;;;;;15.50;58.40;;;;;;5126429;29;20363;-30
2022/03/21 00:22:33;;;;;;;;;;;15.50;58.50;;;;;;5192491;28;19969;-28
2022/03/21 00:25:05;;;;;;;;;;;15.50;58.40;;;;;;5126036;29;19922;-28
2022/03/21 00:27:36;;;;;;;;;;;15.50;58.50;;;;;;5126114;29;19922;-29
2022/03/21 00:30:09;;;;;;;;;;;15.50;58.60;;;;;;5126360;28;19929;-28
2022/03/21 00:32:40;;;;;;;;;;;15.50;58.50;;;;;;5126065;28;19933;-28
2022/03/21 00:35:12;;;;;;;;;;;15.50;58.50;;;;;;5125847;28;19976;-27
2022/03/21 00:37:43;;;;;;;;;;;15.50;58.60;;;;;;5192147;28;19926;-30
2022/03/21 00:40:15;;;;;;;;;;;15.50;58.60;;;;;;5125746;29;19958;-28
2022/03/21 00:42:46;;;;;;;;;;;15.50;58.50;;;;;;5126309;29;20423;-28
2022/03/21 00:45:18;;;;;;;;;;;15.50;58.50;;;;;;5124689;28;19953;-28
2022/03/21 00:47:49;;;;;;;;;;;15.50;58.50;;;;;;5125823;29;19923;-28
2022/03/21 00:50:21;;;;;;;;;;;15.50;58.40;;;;;;5125510;29;19923;-27
2022/03/21 00:52:52;;;;;;;;;;;15.50;58.50;;;;;;5125644;29;20371;-27
2022/03/21 00:55:28;;;;;;;;;;;15.50;58.60;;;;;;5191816;28;19922;-30
2022/03/21 00:57:59;;;;;;;;;;;15.50;58.60;;;;;;5176178;28;19929;-28
2022/03/21 01:00:30;;;;;;;;;;;15.50;58.70;;;;;;5125623;29;19933;-28
2022/03/21 01:03:01;;;;;;;;;;;15.50;58.80;;;;;;5191384;28;19923;-28
2022/03/21 01:05:33;;;;;;;;;;;15.50;58.70;;;;;;5125549;29;19930;-28
2022/03/21 01:08:03;;;;;;;;;;;15.50;58.80;;;;;;5125563;29;20260;-29
2022/03/21 01:10:34;;;;;;;;;;;15.50;58.80;;;;;;5125450;28;19966;-30
2022/03/21 01:13:05;;;;;;;;;;;15.50;58.80;;;;;;5125559;29;20379;-30
2022/03/21 01:15:36;;;;;;;;;;;15.50;58.70;;;;;;5124693;29;20394;-29
2022/03/21 01:18:07;;;;;;;;;;;15.40;58.60;;;;;;5125678;28;19922;-28
2022/03/21 01:20:38;;;;;;;;;;;15.50;58.60;;;;;;5125139;29;20391;-28
2022/03/21 01:23:09;;;;;;;;;;;15.40;58.50;;;;;;5125350;29;19972;-28
2022/03/21 01:25:40;;;;;;;;;;;15.40;58.30;;;;;;5125058;29;19926;-28
2022/03/21 01:28:10;;;;;;;;;;;15.50;58.40;;;;;;5125328;28;19927;-30
2022/03/21 01:30:41;;;;;;;;;;;15.50;58.50;;;;;;5125178;29;19926;-30
2022/03/21 01:33:12;;;;;;;;;;;15.50;58.40;;;;;;5125086;29;19922;-28
2022/03/21 01:35:44;;;;;;;;;;;15.50;58.40;;;;;;5125107;29;19923;-28
2022/03/21 01:38:15;;;;;;;;;;;15.50;58.30;;;;;;5190501;28;19930;-28
2022/03/21 01:40:47;;;;;;;;;;;15.40;58.10;;;;;;5124978;28;20314;-28
2022/03/21 01:43:18;;;;;;;;;;;15.40;58.10;;;;;;5124874;29;19922;-30
2022/03/21 01:45:49;;;;;;;;;;;15.50;58.10;;;;;;5125232;29;19929;-28
2022/03/21 01:48:19;;;;;;;;;;;15.50;58.00;;;;;;5125316;29;20296;-28
2022/03/21 01:50:50;;;;;;;;;;;15.50;57.90;;;;;;5124920;29;20368;-30
2022/03/21 01:56:11;;;;;;;;;;;15.40;57.90;;;;;;5124869;28;19926;-28
2022/03/21 01:58:42;;;;;;;;;;;15.40;57.90;;;;;;5190564;28;19976;-28
2022/03/21 02:01:13;;;;;;;;;;;15.40;58.00;;;;;;5190196;28;19926;-28
2022/03/21 02:03:45;;;;;;;;;;;15.40;57.90;;;;;;5124796;28;19922;-30
2022/03/21 02:06:16;;;;;;;;;;;15.50;58.00;;;;;;5124685;28;19930;-28
2022/03/21 02:08:47;;;;;;;;;;;15.50;58.00;;;;;;5124216;28;19922;-28
2022/03/21 02:11:19;;;;;;;;;;;15.50;58.00;;;;;;5124581;28;19922;-28
2022/03/21 02:13:50;;;;;;;;;;;15.50;58.00;;;;;;5124174;29;19958;-28
2022/03/21 02:16:21;;;;;;;;;;;15.40;58.00;;;;;;5124200;29;19933;-28
2022/03/21 02:18:52;;;;;;;;;;;15.50;58.00;;;;;;5124745;28;19929;-29
2022/03/21 02:21:44;;;;;;;;;;;15.50;58.00;;;;;;5124330;28;19922;-28
2022/03/21 02:24:24;;;;;;;;;;;15.40;58.00;;;;;;5189995;28;19976;-28
2022/03/21 02:26:56;;;;;;;;;;;15.50;58.00;;;;;;5124603;28;19968;-28
2022/03/21 02:29:28;;;;;;;;;;;15.50;58.00;;;;;;5124173;28;19948;-28
2022/03/21 02:31:59;;;;;;;;;;;15.50;58.00;;;;;;5190431;28;19934;-29
2022/03/21 02:34:29;;;;;;;;;;;15.50;58.00;;;;;;5189914;28;20365;-30
2022/03/21 02:37:00;;;;;;;;;;;15.50;58.00;;;;;;5190181;28;19927;-27
2022/03/21 02:39:31;;;;;;;;;;;15.50;58.10;;;;;;5124238;29;20295;-28
2022/03/21 02:42:03;;;;;;;;;;;15.50;58.00;;;;;;5190282;28;19926;-28
2022/03/21 02:44:34;;;;;;;;;;;15.50;58.00;;;;;;5124143;29;20256;-30
2022/03/21 02:47:06;;;;;;;;;;;15.50;58.00;;;;;;5123752;29;19930;-28
2022/03/21 02:49:37;;;;;;;;;;;15.50;58.00;;;;;;5190018;28;20008;-27
2022/03/21 02:52:08;;;;;;;;;;;15.50;57.90;;;;;;5124003;29;19922;-27
2022/03/21 02:54:38;;;;;;;;;;;15.50;57.80;;;;;;5189546;28;20261;-29
2022/03/21 02:57:11;;;;;;;;;;;15.50;57.80;;;;;;5123712;28;19929;-29
2022/03/21 02:59:42;;;;;;;;;;;15.50;57.70;;;;;;5124176;28;19949;-28
2022/03/21 03:02:13;;;;;;;;;;;15.50;57.80;;;;;;5123717;29;19953;-28
2022/03/21 03:04:43;;;;;;;;;;;15.50;57.70;;;;;;5190199;28;20371;-29
2022/03/21 03:07:14;;;;;;;;;;;15.50;57.70;;;;;;5123696;29;19922;-28
2022/03/21 03:09:45;;;;;;;;;;;15.50;57.70;;;;;;5126367;28;20253;-28
2022/03/21 03:12:16;;;;;;;;;;;15.50;57.60;;;;;;5127349;28;19929;-30
2022/03/21 03:14:47;;;;;;;;;;;15.50;57.60;;;;;;5127267;28;19929;-28
2022/03/21 03:17:18;;;;;;;;;;;15.50;57.50;;;;;;5127033;29;19922;-28
2022/03/21 03:19:49;;;;;;;;;;;15.50;57.50;;;;;;5127313;29;19945;-29
2022/03/21 03:22:20;;;;;;;;;;;15.50;57.50;;;;;;5193441;28;19968;-28
2022/03/21 03:24:51;;;;;;;;;;;15.50;57.40;;;;;;5193382;28;19922;-30
2022/03/21 03:27:22;;;;;;;;;;;15.50;57.40;;;;;;5126957;29;20356;-28
2022/03/21 03:29:53;;;;;;;;;;;15.50;57.40;;;;;;5126998;28;19922;-30
2022/03/21 03:32:27;;;;;;;;;;;15.50;57.40;;;;;;5126915;29;20364;-28
2022/03/21 03:34:58;;;;;;;;;;;15.50;57.40;;;;;;5126622;29;19936;-30
2022/03/21 03:37:29;;;;;;;;;;;15.50;57.40;;;;;;5193067;28;19929;-28
2022/03/21 03:40:00;;;;;;;;;;;15.50;57.30;;;;;;5126898;28;20295;-28
2022/03/21 03:42:31;;;;;;;;;;;15.50;57.30;;;;;;5126800;28;19922;-28
2022/03/21 03:45:03;;;;;;;;;;;15.50;57.30;;;;;;5193039;28;19929;-28
2022/03/21 03:47:34;;;;;;;;;;;15.50;57.40;;;;;;5193399;28;19954;-28
2022/03/21 03:50:04;;;;;;;;;;;15.50;57.50;;;;;;5126776;28;19965;-27
2022/03/21 03:52:36;;;;;;;;;;;15.50;57.50;;;;;;5159933;28;20295;-28
2022/03/21 03:58:14;;;;;;;;;;;15.50;57.50;;;;;;5126490;29;19969;-30
2022/03/21 04:00:46;;;;;;;;;;;15.50;57.40;;;;;;5126312;28;19922;-28
2022/03/21 04:06:07;;;;;;;;;;;15.50;57.40;;;;;;5126846;28;19923;-28
2022/03/21 04:08:38;;;;;;;;;;;15.50;57.50;;;;;;5126272;29;19922;-28
2022/03/21 04:11:09;;;;;;;;;;;15.50;57.50;;;;;;5126321;28;19922;-29
2022/03/21 04:13:40;;;;;;;;;;;15.50;57.50;;;;;;5126414;28;19980;-28
2022/03/21 04:16:11;;;;;;;;;;;15.50;57.50;;;;;;5192493;28;20391;-31
2022/03/21 04:18:42;;;;;;;;;;;15.50;57.60;;;;;;5192309;28;19927;-29
2022/03/21 04:21:13;;;;;;;;;;;15.50;57.50;;;;;;5126064;28;19929;-28
2022/03/21 04:23:44;;;;;;;;;;;15.50;57.50;;;;;;5126325;29;20017;-28
2022/03/21 04:26:15;;;;;;;;;;;15.50;57.60;;;;;;5126209;29;19930;-31
2022/03/21 04:28:46;;;;;;;;;;;15.50;57.60;;;;;;5126137;28;20276;-29
2022/03/21 04:31:17;;;;;;;;;;;15.50;57.50;;;;;;5125780;28;19957;-28
2022/03/21 04:33:47;;;;;;;;;;;15.50;57.50;;;;;;5125973;28;19949;-30
2022/03/21 04:36:19;;;;;;;;;;;15.50;57.50;;;;;;5126541;28;19922;-27
2022/03/21 04:38:50;;;;;;;;;;;15.50;57.50;;;;;;5125973;28;19933;-28
2022/03/21 04:41:21;;;;;;;;;;;15.50;57.50;;;;;;5125415;28;19922;-28
2022/03/21 04:43:52;;;;;;;;;;;15.50;57.50;;;;;;5191955;28;19949;-28
2022/03/21 04:46:24;;;;;;;;;;;15.50;59.30;;;;;;5125661;29;19922;-28
2022/03/21 04:48:55;;;;;;;;;;;15.60;59.00;;;;;;5125829;29;20007;-28
2022/03/21 04:51:26;;;;;;;;;;;15.60;58.70;;;;;;5125483;29;20360;-28
2022/03/21 04:53:57;;;;;;;;;;;15.70;58.80;;;;;;5124791;28;19945;-29
2022/03/21 04:56:28;;;;;;;;;;;15.70;57.30;;;;;;5125126;28;19922;-29
2022/03/21 04:58:59;;;;;;;;;;;15.20;57.80;;;;;;5125402;29;19922;-28
2022/03/21 05:01:30;;;;;;;;;;;14.60;58.50;;;;;;5125280;28;19926;-28
2022/03/21 05:04:01;;;;;;;;;;;14.30;58.80;;;;;;5114947;28;19926;-28
2022/03/21 05:06:34;;;;;;;;;;;14.00;59.30;;;;;;5114788;28;19926;-27
2022/03/21 05:09:05;;;;;;;;;;;13.80;59.50;;;;;;5116915;28;20030;-28
2022/03/21 05:11:36;;;;;;;;;;;13.60;59.40;;;;;;5108608;28;20341;-29
2022/03/21 05:14:07;;;;;;;;;;;13.40;59.80;;;;;;5116900;28;19968;-28
2022/03/21 05:16:38;;;;;;;;;;;13.30;60.20;;;;;;5180558;28;19926;-27
2022/03/21 05:19:09;;;;;;;;;;;13.30;60.20;;;;;;5178026;28;19946;-29
2022/03/21 05:21:41;;;;;;;80.23;59.30;;;13.20;60.30;;;;;;5106208;28;19930;-30
2022/03/21 05:32:40;;;;;;;;;;;12.80;60.90;;;;;;5117475;28;19930;-28
2022/03/21 05:38:01;;;;;;;;;;;12.60;62.60;;;;;;5159789;28;19992;-27
2022/03/21 05:40:35;;;;;;;;;;;12.50;62.30;;;;;;5180222;28;19931;-28
2022/03/21 05:43:07;;;;;;;;;;;12.50;62.80;;;;;;5115442;28;20013;-27
2022/03/21 05:45:39;;;;;;;;;;;12.40;63.00;;;;;;5115799;28;19923;-28
2022/03/21 05:51:00;;;;;;;;;;;12.30;63.10;;;;;;5118109;28;19931;-30
2022/03/21 05:53:31;;;;;;;;;;;12.30;63.40;;;;;;5113376;28;20361;-27
2022/03/21 05:56:02;;;;;;;;;;;12.20;63.80;;;;;;5165101;28;20029;-30
2022/03/21 05:58:33;;;;;;;;;;;12.20;63.70;;;;;;5116998;28;20585;-28
2022/03/21 06:01:04;;;;;;;;;;;12.20;63.90;;;;;;5118453;28;19988;-27
2022/03/21 06:03:35;;;;;;;;;;;12.20;64.20;;;;;;5113312;28;19968;-30
2022/03/21 06:06:06;;;;;;;;;;;12.10;64.00;;;;;;5116636;28;19923;-28
2022/03/21 06:08:37;;;;;;;;;;;12.10;64.30;;;;;;5178564;28;19922;-27
2022/03/21 06:11:08;;;;;;;;;;;12.10;64.60;;;;;;5110460;28;20375;-30
2022/03/21 06:13:43;;;;;;;;;;;12.00;64.60;;;;;;5117026;28;19929;-29
2022/03/21 06:16:15;;;;;;;;;;;12.00;65.00;;;;;;5105366;28;19923;-30
2022/03/21 06:18:46;;;;;;;;;;;12.00;65.20;;;;;;5174950;28;19923;-27
2022/03/21 06:21:17;;;;;;;;;;;12.00;65.40;;;;;;5176753;28;19922;-28
2022/03/21 06:23:48;;;;;;;;;;;11.90;65.60;;;;;;5113207;28;20359;-29
2022/03/21 06:26:19;;;;;;;;;;;12.00;66.60;;;;;;5108132;28;20025;-27
2022/03/21 06:28:50;;;;;;;;;;;11.90;66.90;;;;;;5112223;28;19926;-27
2022/03/21 06:31:21;;;;;;;;;;;11.90;66.20;;;;;;5116394;28;19926;-28
2022/03/21 06:33:52;;;;;;;;;;;11.90;66.90;;;;;;5171434;28;19973;-30
2022/03/21 06:36:23;;;;;;;;;;;11.90;66.70;;;;;;5113128;28;20386;-29
2022/03/21 06:38:54;;;;;;;;;;;11.90;67.40;;;;;;5107251;28;20709;-27
2022/03/21 06:41:25;;;;;;;;;;;11.90;67.60;;;;;;5119597;28;19927;-27
2022/03/21 06:43:56;;;;;;;;;;;11.90;67.60;;;;;;5112596;28;20683;-27
2022/03/21 06:46:27;;;;;;;;;;;11.90;67.80;;;;;;5155804;28;19930;-27
2022/03/21 06:48:59;;;;;;;;;;;11.90;67.70;;;;;;5182421;28;20334;-28
2022/03/21 06:51:30;;;;;;;;;;;11.80;67.50;;;;;;5114884;28;19926;-28
2022/03/21 06:54:01;;;;;;;;;;;11.80;66.70;;;;;;5108650;28;20382;-30
2022/03/21 06:56:32;;;;;;;;;;;11.80;67.80;;;;;;5182014;28;19922;-30
2022/03/21 06:59:03;;;;;;;;;;;11.80;68.40;;;;;;5175799;28;19946;-30
2022/03/21 07:01:36;;;;;;;;;;;11.80;68.10;;;;;;5116378;28;19956;-30
2022/03/21 07:04:07;;;;;;;;;;;11.80;68.40;;;;;;5108640;28;19923;-27
2022/03/21 07:06:38;;;;;;;;;;;11.80;68.80;;;;;;5188447;28;19976;-29
2022/03/21 07:09:09;;;;;;;;;;;11.80;69.20;;;;;;5110790;28;19922;-30
2022/03/21 07:11:39;;;;;;;;;;;11.80;69.30;;;;;;5184761;28;19933;-28
2022/03/21 07:14:12;;;;;;;;;;;11.80;69.30;;;;;;5121967;28;19927;-28
2022/03/21 07:16:42;;;;;;;;;;;11.90;69.60;;;;;;5117773;28;19969;-27
2022/03/21 07:19:15;;;;;;;;;;;11.90;69.20;;;;;;5119851;28;20017;-27
2022/03/21 07:21:46;;;;;;;;;;;12.10;69.10;;;;;;5120587;28;19923;-27
2022/03/21 07:24:19;;;;;;;;;;;12.20;69.20;;;;;;5117514;28;19927;-27
2022/03/21 07:26:51;;;;;;;;;;;12.30;68.80;;;;;;5117050;28;19923;-28
2022/03/21 07:29:22;;;;;;;;;;;12.40;68.90;;;;;;5109662;28;19926;-26
2022/03/21 07:31:54;;;;;;;;;;;12.50;69.10;;;;;;5119379;28;19926;-28
2022/03/21 07:34:25;;;;;;;;;;;12.50;69.30;;;;;;5111899;28;20017;-28
2022/03/21 07:36:55;;;;;;;;;;;12.50;68.60;;;;;;5115518;28;20037;-28
2022/03/21 07:39:29;;;;;;;;;;;12.50;68.50;;;;;;5172751;28;19926;-27
2022/03/21 07:42:02;;;;;;;;;;;12.40;68.30;;;;;;5115587;28;20372;-28
2022/03/21 07:47:26;;;;;;;;;;;12.40;68.70;;;;;;5117463;28;19922;-30
2022/03/21 07:49:58;;;;;;;;;;;12.50;69.00;;;;;;5179978;28;19923;-30
2022/03/21 07:52:29;;;;;;;;;;;12.40;68.30;;;;;;5183588;28;19945;-28
2022/03/21 07:55:00;;;;;;;;;;;12.40;68.80;;;;;;5183665;28;19926;-27
2022/03/21 07:57:31;;;;;;;;;;;12.40;68.70;;;;;;5107754;28;19923;-29
2022/03/21 08:00:05;;;;;;;;;;;12.50;68.20;;;;;;5113235;28;20330;-29
2022/03/21 08:02:36;;;;;;;;;;;12.50;67.10;;;;;;5115224;28;19930;-27
2022/03/21 08:05:07;;;;;;;;;;;12.50;67.30;;;;;;5172877;28;19930;-28
2022/03/21 08:07:38;;;;;;;;;;;12.50;66.80;;;;;;5112672;28;19992;-29
2022/03/21 08:10:10;;;;;;;;;;;12.60;67.10;;;;;;5110503;28;19922;-28
2022/03/21 08:12:42;;;;;;;;;;;12.60;66.50;;;;;;5180598;28;19962;-30
2022/03/21 08:15:13;;;;;;;;;;;12.60;66.30;;;;;;5115252;28;20005;-29
2022/03/21 08:17:51;;;;;;;;;;;12.60;66.20;;;;;;5118377;28;19926;-28
2022/03/21 08:20:22;;;;;;;;;;;12.50;65.80;;;;;;5191535;28;19926;-28
2022/03/21 08:22:55;;;;;;;;;;;12.60;66.00;;;;;;5125964;29;20372;-28
2022/03/21 08:25:27;;;;;;;;;;;12.60;65.20;;;;;;5125921;28;19959;-27
2022/03/21 08:27:58;;;;;;;;;;;12.60;66.30;;;;;;5125738;28;19984;-28
2022/03/21 08:30:32;;;;;;;;;;;12.60;65.30;;;;;;5191617;28;19923;-28
2022/03/21 08:33:04;;;;;;;;;;;12.60;65.70;;;;;;5140553;28;20282;-27
2022/03/21 08:35:36;;;;;;;;;;;12.60;65.00;;;;;;5212124;28;19922;-28
2022/03/21 08:38:07;;;;;;;;;;;12.60;64.10;;;;;;5211670;28;19926;-29
2022/03/21 08:40:38;;;;;;;;;;;12.60;65.50;;;;;;5145350;28;19945;-28
2022/03/21 08:43:27;;;;;;;;;;;12.60;63.50;;;;;;5211823;28;19926;-28
2022/03/21 08:47:04;;;;;;;;;;;;;;;;;;;;;
2022/03/21 08:54:01;;;;;;;;;;;13.40;62.00;;;;;;5028182;29;19932;-30
2022/03/21 08:57:20;;;;;;;;;;;;;;;;;;;;;
2022/03/21 09:00:45;;;;;;;;;;;13.90;61.70;;;;;;4971387;29;20401;-30
2022/03/21 09:07:25;;;;;;;;;;;;;;;;;;;;;
2022/03/21 09:10:20;;;;;;;;;;;14.40;61.40;;;;;;4878696;30;20390;-30
2022/03/21 09:13:24;;;;;;;;;;;;;;;;;;;;;
2022/03/21 09:16:45;;;;;;;;;;;14.60;62.80;;;;;;4879632;30;19984;-28
2022/03/21 09:19:24;;;;;;;;;;;14.80;72.50;;;;;;4843773;30;19915;-28
2022/03/21 09:22:22;;;;;;;;;;;14.90;65.00;;;;;;4843954;30;20321;-28
2022/03/21 09:25:34;;;;;;;;;;;15.00;63.40;;;;;;4843683;30;19926;-30
2022/03/21 09:34:45;;;;;;;;;;;15.10;61.50;;;;;;4825884;30;20360;-29
2022/03/21 09:37:16;;;;;;;;;;;15.20;61.20;;;;;;4799212;30;19920;-30
2022/03/21 09:40:41;;;;;;;;;;;15.20;62.90;;;;;;4791182;30;20374;-29
2022/03/21 09:43:44;;;;;;;;;;;15.30;64.80;;;;;;5093311;27;6650414;-31
2022/03/21 09:46:31;;;;;;;;;;;15.30;63.10;;;;;;5331381;27;20326;-29
2022/03/21 09:49:07;;;;;;;;;;;15.20;60.40;;;;;;5330070;27;19927;-29
2022/03/21 09:52:04;;;;;;;;;;;15.30;62.30;;;;;;5330743;27;19923;-33
2022/03/21 09:54:52;;;;;;;;;;;15.30;61.00;;;;;;5294262;27;20280;-29
2022/03/21 09:57:44;;;;;;;;;;;15.30;59.70;;;;;;5301539;27;19923;-31
2022/03/21 10:00:17;;;;;;;;;;;15.40;59.20;;;;;;5330475;27;19928;-30
2022/03/21 10:02:51;;;;;;;;;;;15.30;61.30;;;;;;5331107;27;20329;-32
2022/03/21 10:05:32;;;;;;;;;;;15.40;59.80;;;;;;5312292;27;19924;-35
2022/03/21 10:08:17;;;;;;;;;;;15.40;59.30;;;;;;5311839;27;19923;-29
2022/03/21 10:10:55;;;;;;;;;;;15.40;59.10;;;;;;5312680;27;19924;-28
2022/03/21 10:13:27;;;;;;;;;;;15.40;58.40;;;;;;5308951;28;19923;-31
2022/03/21 10:16:07;;;;;;;;;;;15.40;60.50;;;;;;5305963;28;19980;-31
2022/03/21 10:18:39;;;;;;;;;;;15.40;58.20;;;;;;5298034;28;19931;-29
2022/03/21 10:21:14;;;;;;;;;;;15.40;58.90;;;;;;5306093;28;19935;-33
2022/03/21 10:24:06;;;;;;;;;;;15.40;61.40;;;;;;5306742;28;19923;-29
2022/03/21 10:26:40;;;;;;;;;;;15.40;58.20;;;;;;5293512;28;19958;-31
2022/03/21 10:29:16;;;;;;;;;;;15.40;59.10;;;;;;5305938;28;19968;-32
2022/03/21 10:31:48;;;;;;;;;;;15.40;57.70;;;;;;5288046;28;19924;-29
2022/03/21 10:34:34;;;;;;;;;;;15.50;57.80;;;;;;5306237;28;19931;-31
2022/03/21 10:37:10;;;;;;;;;;;15.50;61.70;;;;;;5306477;28;19924;-36
2022/03/21 10:39:49;;;;;;;;;;;15.50;61.20;;;;;;5305827;28;19969;-34
2022/03/21 10:42:24;;;;;;;;;;;15.50;60.60;;;;;;5293564;28;19928;-30
2022/03/21 10:45:02;;;;;;;;;;;15.50;58.30;;;;;;5284755;28;19923;-31
2022/03/21 10:47:36;;;;;;;;;;;15.50;60.00;;;;;;5285049;28;20355;-29
2022/03/21 10:50:07;;;;;;;;;;;15.50;59.50;;;;;;5266432;28;20408;-29
2022/03/21 10:52:39;;;;;;;;;;;15.50;61.00;;;;;;5282605;28;19978;-30
2022/03/21 10:55:19;;;;;;;;;;;15.50;58.40;;;;;;5270294;28;19935;-31
2022/03/21 10:57:54;;;;;;;;;;;15.50;58.70;;;;;;5270767;28;19924;-30
2022/03/21 11:00:31;;;;;;;;;;;15.50;58.10;;;;;;5252167;28;19935;-35
2022/03/21 11:03:05;;;;;;;;;;;15.50;57.40;;;;;;5270377;28;20026;-30
2022/03/21 11:05:37;;;;;;;;;;;15.50;57.50;;;;;;5238670;28;19931;-34
2022/03/21 11:08:09;;;;;;;;;;;15.50;58.10;;;;;;5270478;28;19924;-27
2022/03/21 11:10:40;;;;;;;;;;;15.60;63.20;;;;;;5269953;28;20300;-30
2022/03/21 11:13:12;;;;;;;;;;;15.50;62.00;;;;;;5270016;28;20623;-31
2022/03/21 11:15:43;;;;;;;;;;;15.50;59.30;;;;;;5252242;28;19924;-31
2022/03/21 11:18:14;;;;;;;;;;;15.50;58.30;;;;;;5252282;28;20270;-33
2022/03/21 11:20:49;;;;;;;;;;;15.50;57.10;;;;;;5270021;28;20442;-36
2022/03/21 11:23:20;;;;;;;;;;;15.50;56.60;;;;;;5269827;28;19931;-33
2022/03/21 11:26:01;;;;;;;;;;;15.50;56.90;;;;;;5269788;28;20280;-28
2022/03/21 11:28:49;;;;;;;;;;;15.50;59.00;;;;;;5251936;28;20410;-31
2022/03/21 11:31:34;;;;;;;;;;;15.50;55.90;;;;;;5269815;28;20026;-35
2022/03/21 11:34:24;;;;;;;;;;;15.50;55.70;;;;;;5262973;28;19930;-29
2022/03/21 11:36:56;;;;;;;;;;;15.60;55.30;;;;;;5257953;28;19931;-31
2022/03/21 11:39:27;;;;;;;;;;;15.60;55.20;;;;;;5269800;28;19924;-30
2022/03/21 11:42:01;;;;;;;;;;;15.60;55.30;;;;;;5269579;28;19925;-28
2022/03/21 11:44:31;;;;;;;;;;;15.60;55.90;;;;;;5269523;28;19924;-35
2022/03/21 11:47:28;;;;;;;;;;;15.60;55.80;;;;;;5251586;28;20416;-32
2022/03/21 11:49:59;;;;;;;;;;;15.60;55.60;;;;;;5260019;28;20015;-29
2022/03/21 11:52:50;;;;;;;;;;;15.60;55.50;;;;;;5269318;28;20434;-27
2022/03/21 11:55:27;;;;;;;;;;;15.60;55.40;;;;;;5269006;28;20024;-32
2022/03/21 11:58:09;;;;;;;;;;;15.60;55.30;;;;;;5251345;28;19928;-31
2022/03/21 12:01:00;;;;;;;;;;;15.60;55.60;;;;;;5251274;28;20032;-33
2022/03/21 12:03:31;;;;;;;;;;;15.60;56.40;;;;;;5269521;28;19950;-32
2022/03/21 12:06:23;;;;;;;;;;;15.60;56.10;;;;;;5268543;28;19924;-31
2022/03/21 12:09:01;;;;;;;;;;;15.60;56.10;;;;;;5268991;28;19931;-36
2022/03/21 12:11:38;;;;;;;;;;;15.70;56.20;;;;;;5251123;28;19931;-40
2022/03/21 12:14:36;;;;;;;;;;;15.60;56.90;;;;;;5268828;28;19928;-29
2022/03/21 12:17:12;;;;;;;;;;;15.60;56.90;;;;;;5268987;28;19932;-32
2022/03/21 12:19:58;;;;;;;;;;;15.60;56.50;;;;;;5255259;28;20709;-28
2022/03/21 12:22:29;;;;;;;;;;;15.70;56.80;;;;;;5268970;28;19924;-30
2022/03/21 12:25:00;;;;;;;;;;;15.70;57.00;;;;;;5251114;28;19947;-29
2022/03/21 12:27:38;;;;;;;;;;;15.70;57.00;;;;;;5268710;28;19924;-30
2022/03/21 12:30:27;;;;;;;;;;;15.70;59.20;;;;;;5268587;28;19935;-30
2022/03/21 12:33:00;;;;;;;;;;;15.70;58.20;;;;;;5263548;28;20373;-31
2022/03/21 12:35:31;;;;;;;;;;;15.70;58.70;;;;;;5268605;28;19928;-31
2022/03/21 12:38:43;;;;;;;;;;;;;;;;;;;;;
2022/03/21 12:41:18;;;;;;;;;;;15.70;57.10;;;;;;5204903;28;19932;-30
2022/03/21 12:43:52;;;;;;;;;;;15.70;57.10;;;;;;5171969;28;20032;-31
2022/03/21 12:46:24;;;;;;;;;;;15.70;59.00;;;;;;5189978;28;20390;-30
2022/03/21 12:48:57;;;;;;;;;;;15.70;59.70;;;;;;5205941;28;19925;-30
2022/03/21 12:51:32;;;;;;;;;;;15.70;68.90;;;;;;5206339;28;19925;-31
2022/03/21 12:54:05;;;;;;;;;;;15.80;70.70;;;;;;5206058;28;20035;-30
2022/03/21 12:56:41;;;;;;;;;;;15.70;67.40;;;;;;5206009;28;19925;-30
2022/03/21 12:59:12;;;;;;;;;;;15.70;61.60;;;;;;5205605;28;19925;-32
2022/03/21 13:01:48;;;;;;;;;;;15.80;60.30;;;;;;5189908;28;20015;-29
2022/03/21 13:12:56;;;;;;;;;;;15.80;57.80;;;;;;5242961;28;19931;-29
2022/03/21 13:15:40;;;;;;;;;;;15.80;60.40;;;;;;5249518;28;19952;-29
2022/03/21 13:18:16;;;;;;;;;;;15.80;58.70;;;;;;5231258;28;19932;-29
2022/03/21 13:20:48;;;;;;;;;;;15.80;57.20;;;;;;5249307;28;20377;-36
2022/03/21 13:23:22;;;;;;;;;;;15.80;56.80;;;;;;5231639;28;20377;-36
2022/03/21 13:25:55;;;;;;;;;;;15.80;56.40;;;;;;5231286;28;19924;-29
2022/03/21 13:28:33;;;;;;;;;;;15.80;56.50;;;;;;5231369;28;19925;-29
2022/03/21 13:31:15;;;;;;;;;;;15.90;57.20;;;;;;5216791;28;19924;-36
2022/03/21 13:33:59;;;;;;;;;;;15.90;57.70;;;;;;5248905;28;19928;-31
2022/03/21 13:36:49;;;;;;;;;;;15.90;57.30;;;;;;5231063;28;19924;-29
2022/03/21 13:39:38;;;;;;;;;;;15.90;58.20;;;;;;5233352;28;19925;-31
2022/03/21 13:42:15;;;;;;;;;;;15.90;60.40;;;;;;5237593;28;19970;-29
2022/03/21 13:44:46;;;;;;;;;;;15.90;58.40;;;;;;5231247;28;19928;-30
2022/03/21 13:47:19;;;;;;;;;;;15.90;59.60;;;;;;5247606;28;19924;-30
2022/03/21 13:49:53;;;;;;;;;;;15.80;59.20;;;;;;5247947;28;19935;-29
2022/03/21 13:52:46;;;;;;;;;;;15.80;59.60;;;;;;5248826;28;19928;-33
2022/03/21 13:55:17;;;;;;;;;;;15.80;59.50;;;;;;5248104;28;20291;-30
2022/03/21 13:57:55;;;;;;;;;;;15.30;59.10;;;;;;5248639;28;19956;-29
2022/03/21 14:00:36;;;;;;;;;;;14.70;64.10;;;;;;5249052;28;19925;-31
2022/03/21 14:03:10;;;;;;;;;;;14.40;60.40;;;;;;5248576;28;19978;-26
2022/03/21 14:05:41;;;;;;;;;;;14.20;63.60;;;;;;5249001;28;19970;-29
2022/03/21 14:08:15;;;;;;;;;;;14.10;62.50;;;;;;5249150;28;19962;-29
2022/03/21 14:10:49;;;;;;;;;;;14.00;64.50;;;;;;5248548;28;19964;-32
2022/03/21 14:13:29;;;;;;;;;;;14.00;63.10;;;;;;5249561;28;19925;-34
2022/03/21 14:16:02;;;;;;;;;;;14.00;65.20;;;;;;5249210;28;19951;-33
2022/03/21 14:18:37;;;;;;;;;;;14.00;61.50;;;;;;5247348;28;19931;-33
2022/03/21 14:21:09;;;;;;;;;;;14.00;63.10;;;;;;5249349;28;20274;-30
2022/03/21 14:23:42;;;;;;;;;;;14.00;61.90;;;;;;5247442;28;20254;-28
2022/03/21 14:29:06;;;;;;;;;;;14.00;63.60;;;;;;5250677;28;19931;-28
2022/03/21 14:31:39;;;;;;;;;;;14.00;63.90;;;;;;5240789;28;20405;-31
2022/03/21 14:34:14;;;;;;;;;;;14.00;61.70;;;;;;5256131;28;20315;-29
2022/03/21 14:36:47;;;;;;;;;;;14.10;62.20;;;;;;5250267;28;20027;-32
2022/03/21 14:39:20;;;;;;;;;;;14.10;64.40;;;;;;5250050;28;20433;-29
2022/03/21 14:41:51;;;;;;;;;;;14.10;61.40;;;;;;5250104;28;20027;-32
2022/03/21 14:44:23;;;;;;;;;;;14.20;63.70;;;;;;5247128;28;19932;-30
2022/03/21 14:46:55;;;;;;;;;;;14.20;63.00;;;;;;5271252;28;20396;-28
2022/03/21 14:49:29;;;;;;;;;;;14.20;61.50;;;;;;5270854;28;19924;-28
2022/03/21 14:52:02;;;;;;;;;;;14.20;62.90;;;;;;5270564;28;20011;-28
2022/03/21 14:54:33;;;;;;;;;;;14.10;62.50;;;;;;5252837;28;20270;-29
2022/03/21 14:57:04;;;;;;;;;;;14.10;62.20;;;;;;5270468;28;19981;-33
2022/03/21 14:59:35;;;;;;;;;;;14.10;61.80;;;;;;5270659;28;19928;-31
2022/03/21 15:02:06;;;;;;;;;;;14.10;62.70;;;;;;5270274;28;20700;-31
2022/03/21 15:04:38;;;;;;;;;;;14.10;62.80;;;;;;5270961;28;19924;-29
2022/03/21 15:07:09;;;;;;;;;;;14.00;62.60;;;;;;5272648;28;19928;-29
2022/03/21 15:12:34;;;;;;;;;;;14.00;62.20;;;;;;5272453;28;19971;-32
2022/03/21 15:15:05;;;;;;;;;;;13.90;61.60;;;;;;5272693;28;19976;-28
2022/03/21 15:17:37;;;;;;;;;;;14.00;63.30;;;;;;5254735;28;19924;-27
2022/03/21 15:20:11;;;;;;;;;;;13.90;63.30;;;;;;5272385;28;19924;-31
2022/03/21 15:22:46;;;;;;;;;;;13.90;62.40;;;;;;5272543;28;20269;-28
2022/03/21 15:25:21;;;;;;;;;;;14.00;61.70;;;;;;5255480;28;19924;-32
2022/03/21 15:27:52;;;;;;;;;;;13.90;62.70;;;;;;5272378;28;20292;-30
2022/03/21 15:30:26;;;;;;;;;;;13.90;62.40;;;;;;5272465;28;20431;-27
2022/03/21 15:32:57;;;;;;;;;;;13.90;62.30;;;;;;5272148;28;19931;-29
2022/03/21 16:20:04;;;;;;;;;;;13.40;65.70;;;;;;5287792;28;19923;-31
2022/03/21 16:22:35;;;;;;;;;;;13.40;65.60;;;;;;5271113;28;20028;-29
2022/03/21 16:25:06;;;;;;;;;;;13.40;65.70;;;;;;5271152;28;20015;-30
2022/03/21 16:27:38;;;;;;;;;;;13.30;64.30;;;;;;5271271;28;20301;-29
2022/03/21 16:30:09;;;;;;;;;;;13.30;66.50;;;;;;5270916;28;19924;-29
2022/03/21 16:32:40;;;;;;;;;;;13.30;63.20;;;;;;5270288;28;19928;-29
2022/03/21 16:35:12;;;;;;;;;;;13.30;67.00;;;;;;5270928;28;19924;-28
2022/03/21 16:37:44;;;;;;;;;;;13.20;65.40;;;;;;5270946;28;19938;-30
2022/03/21 16:40:18;;;;;;;;;;;13.30;64.00;;;;;;5270984;28;19928;-28
2022/03/21 16:42:49;;;;;;;;;;;13.20;68.60;;;;;;5271397;28;19935;-29
2022/03/21 16:45:20;;;;;;;;;;;13.30;67.10;;;;;;5271019;28;20369;-29